Time;durP1;ratioP1;P1;durP2;ratioP2;P2;SDS_P1;SDS_P2;PMS_P1;PMS_P2;Temp;Humidity;BMP_temperature;BMP_pressure;BME280_temperature;BME280_humidity;BME280_pressure;Samples;Min_cycle;Max_cycle;Signal;HPM_P1;HPM_P2
2021/07/27 00:00:35;;;;;;;46.42;28.00;;;17.30;99.90;;;;;;5052088;28;20064;-74
2021/07/27 00:03:01;;;;;;;43.78;27.65;;;17.20;99.90;;;;;;5051244;28;20473;-75
2021/07/27 00:05:28;;;;;;;45.90;25.67;;;17.20;99.90;;;;;;5052211;28;20025;-74
2021/07/27 00:07:53;;;;;;;47.33;28.08;;;17.20;99.90;;;;;;5053142;28;20025;-75
2021/07/27 00:10:24;;;;;;;42.50;26.80;;;17.20;99.90;;;;;;5053288;28;20353;-74
2021/07/27 00:12:49;;;;;;;51.00;28.67;;;17.20;99.90;;;;;;5053450;28;20476;-75
2021/07/27 00:15:15;;;;;;;49.33;25.60;;;17.20;99.90;;;;;;5038897;28;20029;-74
2021/07/27 00:17:40;;;;;;;48.60;28.17;;;17.20;99.90;;;;;;5048487;28;20020;-74
2021/07/27 00:20:07;;;;;;;47.95;28.60;;;17.30;99.90;;;;;;5031266;28;20033;-74
2021/07/27 00:22:32;;;;;;;47.90;28.42;;;17.30;99.90;;;;;;5035722;28;20040;-75
2021/07/27 00:24:58;;;;;;;54.92;30.08;;;17.30;99.90;;;;;;5036252;28;20112;-74
2021/07/27 00:27:24;;;;;;;53.20;30.48;;;17.40;99.90;;;;;;5036614;28;20469;-74
2021/07/27 00:29:50;;;;;;;51.80;29.23;;;17.40;99.90;;;;;;5035510;28;20032;-74
2021/07/27 00:32:15;;;;;;;46.40;28.52;;;17.40;99.90;;;;;;5036044;28;20017;-73
2021/07/27 00:34:41;;;;;;;58.55;29.27;;;17.40;99.90;;;;;;5036381;28;20129;-73
2021/07/27 00:37:16;;;;;;;49.97;29.05;;;17.40;99.90;;;;;;5034981;28;20065;-73
2021/07/27 00:39:42;;;;;;;50.83;30.40;;;17.40;99.90;;;;;;5035887;28;20385;-74
2021/07/27 00:42:08;;;;;;;46.53;27.33;;;17.40;99.90;;;;;;5035815;28;20032;-75
2021/07/27 00:44:34;;;;;;;46.38;28.92;;;17.40;99.90;;;;;;5035628;28;20025;-74
2021/07/27 00:46:59;;;;;;;50.75;30.88;;;17.40;99.90;;;;;;5035526;28;20419;-74
2021/07/27 00:49:25;;;;;;;51.20;30.55;;;17.40;99.90;;;;;;5035481;28;20026;-74
2021/07/27 00:51:50;;;;;;;51.25;28.83;;;17.40;99.90;;;;;;5034886;28;20025;-74
2021/07/27 00:54:16;;;;;;;45.60;29.52;;;17.40;99.90;;;;;;5035491;28;20025;-75
2021/07/27 00:56:41;;;;;;;52.50;29.00;;;17.40;99.90;;;;;;5036046;28;20053;-74
2021/07/27 00:59:07;;;;;;;50.03;29.52;;;17.30;99.90;;;;;;5034741;28;20033;-74
2021/07/27 01:01:35;;;;;;;47.63;29.27;;;17.30;99.90;;;;;;5035612;28;20551;-75
2021/07/27 01:04:00;;;;;;;53.13;31.88;;;17.30;99.90;;;;;;5035266;28;20033;-74
2021/07/27 01:06:26;;;;;;;59.47;31.88;;;17.20;99.90;;;;;;5034865;28;20067;-73
2021/07/27 01:08:52;;;;;;;64.55;35.13;;;17.20;99.90;;;;;;5035273;28;20071;-74
2021/07/27 01:11:23;;;;;;;62.90;32.80;;;17.20;99.90;;;;;;5035705;28;20120;-75
2021/07/27 01:13:48;;;;;;;62.33;32.83;;;17.10;99.90;;;;;;5034785;28;20477;-74
2021/07/27 01:16:14;;;;;;;53.60;31.52;;;17.10;99.90;;;;;;5035263;28;20040;-74
2021/07/27 01:18:49;;;;;;;65.20;34.83;;;17.10;99.90;;;;;;5034769;28;20377;-74
2021/07/27 01:37:51;;;;;;;67.45;35.75;;;16.90;99.90;;;;;;5034647;28;20060;-74
2021/07/27 01:40:18;;;;;;;71.57;36.65;;;16.90;99.90;;;;;;5033828;28;20037;-73
2021/07/27 01:42:44;;;;;;;70.38;38.92;;;16.80;99.90;;;;;;5034935;28;20026;-74
2021/07/27 01:45:14;;;;;;;82.25;39.95;;;16.80;99.90;;;;;;5034577;28;20105;-74
2021/07/27 01:47:40;;;;;;;77.72;39.60;;;16.80;99.90;;;;;;5034477;28;20036;-74
2021/07/27 01:50:06;;;;;;;67.90;39.05;;;16.80;99.90;;;;;;5034679;28;20104;-74
2021/07/27 01:52:32;;;;;;;75.78;39.70;;;16.80;99.90;;;;;;5034322;28;20041;-73
2021/07/27 01:54:57;;;;;;;78.50;40.75;;;16.80;99.90;;;;;;5033903;28;20033;-75
2021/07/27 01:57:26;;;;;;;84.90;40.90;;;16.80;99.90;;;;;;5034697;28;20048;-73
2021/07/27 01:59:57;;;;;;;84.30;40.60;;;16.70;99.90;;;;;;5034177;28;20492;-74
2021/07/27 02:02:23;;;;;;;80.25;39.88;;;16.80;99.90;;;;;;5033746;28;20072;-74
2021/07/27 02:04:48;;;;;;;81.57;42.13;;;16.70;99.90;;;;;;5033939;28;20473;-73
2021/07/27 02:07:14;;;;;;;75.50;39.75;;;16.70;99.90;;;;;;5034017;28;20105;-74
2021/07/27 02:09:42;;;;;;;80.75;41.63;;;16.70;99.90;;;;;;5034089;28;20184;-74
2021/07/27 02:12:16;;;;;;;83.43;41.60;;;16.60;99.90;;;;;;5034103;28;20025;-73
2021/07/27 02:15:04;;;;;;;74.38;40.85;;;16.60;99.90;;;;;;5034480;28;20111;-77
2021/07/27 02:17:30;;;;;;;92.47;43.47;;;16.60;99.90;;;;;;5033932;28;20108;-75
2021/07/27 02:19:55;;;;;;;92.07;44.55;;;16.60;99.90;;;;;;5033878;28;20579;-74
2021/07/27 02:22:21;;;;;;;97.25;44.47;;;16.60;99.90;;;;;;5033349;28;20025;-74
2021/07/27 02:24:46;;;;;;;91.53;46.05;;;16.60;99.90;;;;;;5033753;28;20053;-74
2021/07/27 02:27:12;;;;;;;94.93;46.83;;;16.60;99.90;;;;;;5033824;28;20103;-75
2021/07/27 02:29:38;;;;;;;104.32;47.83;;;16.60;99.90;;;;;;5033275;28;20034;-75
2021/07/27 02:32:03;;;;;;;95.65;47.83;;;16.60;99.90;;;;;;5033879;28;20061;-75
2021/07/27 02:34:32;;;;;;;100.53;49.50;;;16.60;99.90;;;;;;5033729;28;20034;-74
2021/07/27 02:36:58;;;;;;;96.95;48.17;;;16.60;99.90;;;;;;5032553;28;20397;-75
2021/07/27 02:39:24;;;;;;;99.93;46.30;;;16.50;99.90;;;;;;5033638;28;20046;-74
2021/07/27 02:41:49;;;;;;;96.45;47.70;;;16.50;99.90;;;;;;5033032;28;20374;-74
2021/07/27 02:44:15;;;;;;;100.63;46.47;;;16.50;99.90;;;;;;5033210;28;20021;-75
2021/07/27 02:46:40;;;;;;;103.55;48.28;;;16.50;99.90;;;;;;5033839;28;20373;-75
2021/07/27 02:49:06;;;;;;;96.80;47.88;;;16.50;99.90;;;;;;5033906;28;20072;-75
2021/07/27 02:51:32;;;;;;;92.85;46.38;;;16.50;99.90;;;;;;5033402;28;20036;-74
2021/07/27 02:53:57;;;;;;;98.82;48.30;;;16.50;99.90;;;;;;5033316;28;20025;-74
2021/07/27 02:56:23;;;;;;;99.40;46.60;;;16.50;99.90;;;;;;5033205;28;20017;-74
2021/07/27 02:58:49;;;;;;;104.20;51.08;;;16.50;99.90;;;;;;5032151;28;20037;-74
2021/07/27 03:01:14;;;;;;;107.30;47.58;;;16.50;99.90;;;;;;5033070;28;20541;-74
2021/07/27 03:03:40;;;;;;;96.15;47.88;;;16.50;99.90;;;;;;5033681;28;20017;-73
2021/07/27 03:06:05;;;;;;;95.03;46.65;;;16.50;99.90;;;;;;5032203;28;20025;-73
2021/07/27 03:09:34;;;;;;;102.55;48.17;;;16.60;99.90;;;;;;5033352;28;20021;-73
2021/07/27 03:11:26;;;;;;;97.55;47.10;;;16.50;99.90;;;;;;5031769;28;20039;-73
2021/07/27 03:13:55;;;;;;;90.72;47.22;;;16.50;99.90;;;;;;5032717;28;20017;-74
2021/07/27 03:16:23;;;;;;;87.43;44.22;;;16.50;99.90;;;;;;5032984;28;20063;-75
2021/07/27 03:18:51;;;;;;;93.00;45.80;;;16.40;99.90;;;;;;5032137;28;20041;-75
2021/07/27 03:21:18;;;;;;;97.93;47.70;;;16.40;99.90;;;;;;5032898;28;20056;-76
2021/07/27 03:23:48;;;;;;;97.45;46.00;;;16.40;99.90;;;;;;5032504;28;20028;-75
2021/07/27 03:26:15;;;;;;;100.75;49.47;;;16.40;99.90;;;;;;5032112;28;20036;-73
2021/07/27 03:28:40;;;;;;;94.03;46.67;;;16.30;99.90;;;;;;5032894;28;20044;-73
2021/07/27 03:31:06;;;;;;;95.50;46.15;;;16.30;99.90;;;;;;5033057;28;20021;-74
2021/07/27 03:33:32;;;;;;;90.32;46.58;;;16.30;99.90;;;;;;5032034;28;20036;-74
2021/07/27 03:35:57;;;;;;;86.28;45.30;;;16.30;99.90;;;;;;5032698;28;20030;-75
2021/07/27 03:38:23;;;;;;;88.80;45.38;;;16.30;99.90;;;;;;5032264;28;20099;-75
2021/07/27 03:40:49;;;;;;;87.80;45.28;;;16.30;99.90;;;;;;5031223;28;20480;-75
2021/07/27 03:43:14;;;;;;;86.22;44.10;;;16.30;99.90;;;;;;5032402;28;20021;-75
2021/07/27 03:45:40;;;;;;;88.25;44.45;;;16.20;99.90;;;;;;5032025;28;20022;-76
2021/07/27 03:48:06;;;;;;;91.20;45.10;;;16.20;99.90;;;;;;5031534;28;20028;-75
2021/07/27 03:50:31;;;;;;;80.63;43.95;;;16.20;99.90;;;;;;5032431;28;20029;-74
2021/07/27 03:52:57;;;;;;;87.32;43.42;;;16.20;99.90;;;;;;5031585;28;20025;-74
2021/07/27 03:55:22;;;;;;;86.40;41.53;;;16.20;99.90;;;;;;5032116;28;20074;-74
2021/07/27 03:57:53;;;;;;;75.20;40.25;;;16.20;99.90;;;;;;5032342;28;20022;-75
2021/07/27 04:00:19;;;;;;;80.97;41.45;;;16.20;99.90;;;;;;5031676;28;20432;-74
2021/07/27 04:02:45;;;;;;;70.63;39.67;;;16.20;99.90;;;;;;5031791;28;20078;-75
2021/07/27 04:05:10;;;;;;;72.07;39.35;;;16.10;99.90;;;;;;5032092;28;20056;-74
2021/07/27 04:07:36;;;;;;;74.00;39.25;;;16.20;99.90;;;;;;5031443;28;20045;-74
2021/07/27 04:10:05;;;;;;;69.18;37.35;;;16.20;99.90;;;;;;5031943;28;20389;-73
2021/07/27 04:12:30;;;;;;;64.70;36.70;;;16.20;99.90;;;;;;5032364;28;20388;-74
2021/07/27 04:14:56;;;;;;;66.30;36.00;;;16.20;99.90;;;;;;5031725;28;20025;-75
2021/07/27 04:17:22;;;;;;;60.90;33.97;;;16.20;99.90;;;;;;5032355;28;20033;-73
2021/07/27 04:19:54;;;;;;;57.53;32.95;;;16.30;99.90;;;;;;5026398;28;20243;-75
2021/07/27 04:22:19;;;;;;;65.95;33.92;;;16.30;99.90;;;;;;5023931;28;20030;-75
2021/07/27 04:24:45;;;;;;;63.92;33.65;;;16.30;99.90;;;;;;5031564;28;20026;-75
2021/07/27 04:27:10;;;;;;;66.10;34.20;;;16.40;99.90;;;;;;5032008;28;20469;-75
2021/07/27 04:29:36;;;;;;;61.45;33.17;;;16.40;99.90;;;;;;5031422;28;20021;-75
2021/07/27 04:32:01;;;;;;;58.80;34.03;;;16.40;99.90;;;;;;5031534;28;20029;-75
2021/07/27 04:34:27;;;;;;;61.83;32.78;;;16.50;99.90;;;;;;5031971;28;20432;-75
2021/07/27 04:36:52;;;;;;;53.28;31.05;;;16.50;99.90;;;;;;5028263;28;20053;-74
2021/07/27 04:39:18;;;;;;;50.85;30.35;;;16.50;99.90;;;;;;5020351;28;20044;-75
2021/07/27 04:41:44;;;;;;;48.63;29.67;;;16.50;99.90;;;;;;5031682;28;20533;-75
2021/07/27 04:44:09;;;;;;;55.83;29.90;;;16.60;99.90;;;;;;5031019;28;20461;-75
2021/07/27 04:46:38;;;;;;;50.90;29.75;;;16.60;99.90;;;;;;5032131;28;20028;-74
2021/07/27 04:49:04;;;;;;;44.20;28.70;;;16.70;99.90;;;;;;5031413;28;20394;-74
2021/07/27 04:51:29;;;;;;;49.08;28.38;;;16.70;99.90;;;;;;5020984;28;20026;-76
2021/07/27 04:54:01;;;;;;;47.13;28.95;;;16.70;99.90;;;;;;5027630;28;20022;-75
2021/07/27 04:56:26;;;;;;;43.45;28.25;;;16.70;99.90;;;;;;5031805;28;20048;-74
2021/07/27 04:58:52;;;;;;;37.85;25.52;;;16.80;99.90;;;;;;5030082;28;20094;-74
2021/07/27 05:01:18;;;;;;;43.88;28.25;;;16.70;99.90;;;;;;5031547;28;20052;-75
2021/07/27 05:03:44;;;;;;;49.42;28.55;;;16.80;99.90;;;;;;5030948;28;20030;-74
2021/07/27 05:06:09;;;;;;;53.30;28.15;;;16.80;99.90;;;;;;5034727;28;20017;-73
2021/07/27 05:08:35;;;;;;;41.83;25.15;;;16.80;99.90;;;;;;5035144;28;20044;-75
2021/07/27 05:11:01;;;;;;;40.65;26.27;;;16.90;99.90;;;;;;5034100;28;20068;-75
2021/07/27 05:13:27;;;;;;;58.42;27.88;;;16.90;99.90;;;;;;5035502;28;20132;-74
2021/07/27 05:15:53;;;;;;;37.22;26.13;;;17.00;99.90;;;;;;5035615;28;20029;-73
2021/07/27 05:18:19;;;;;;;38.42;24.52;;;17.10;99.90;;;;;;5034737;28;20024;-75
2021/07/27 05:20:45;;;;;;;37.83;25.30;;;17.20;99.90;;;;;;5034881;28;20037;-76
2021/07/27 05:23:11;;;;;;;38.58;24.80;;;17.20;99.90;;;;;;5035195;28;20017;-75
2021/07/27 05:25:36;;;;;;;43.08;24.40;;;17.30;99.90;;;;;;5034502;28;20036;-74
2021/07/27 05:28:02;;;;;;;38.38;24.00;;;17.30;99.90;;;;;;5034624;28;20462;-75
2021/07/27 05:30:27;;;;;;;35.88;23.48;;;17.40;99.90;;;;;;5034787;28;20049;-75
2021/07/27 05:32:55;;;;;;;35.50;23.75;;;17.50;99.90;;;;;;5033843;28;20108;-75
2021/07/27 05:35:21;;;;;;;41.58;25.05;;;17.60;99.90;;;;;;5034840;28;20486;-74
2021/07/27 05:37:47;;;;;;;36.38;25.23;;;17.60;99.90;;;;;;5034314;28;20060;-74
2021/07/27 05:40:13;;;;;;;34.47;24.10;;;17.60;99.90;;;;;;5033884;28;20038;-74
2021/07/27 05:42:39;;;;;;;31.13;21.98;;;17.70;99.90;;;;;;5034803;28;20029;-74
2021/07/27 05:45:05;;;;;;;31.90;22.00;;;17.80;99.90;;;;;;5034663;28;20029;-75
2021/07/27 05:47:30;;;;;;;36.42;24.23;;;17.90;99.90;;;;;;5033807;28;20461;-74
2021/07/27 05:49:56;;;;;;;34.03;23.75;;;17.90;99.90;;;;;;5034233;28;20033;-74
2021/07/27 05:52:21;;;;;;;39.15;22.90;;;18.00;99.90;;;;;;5034229;28;20489;-74
2021/07/27 05:54:47;;;;;;;35.90;22.27;;;18.00;99.90;;;;;;5033550;28;20025;-74
2021/07/27 05:57:17;;;;;;;36.83;21.80;;;18.10;99.90;;;;;;5034331;28;20060;-74
2021/07/27 05:59:43;;;;;;;35.65;23.52;;;18.20;99.90;;;;;;5034482;28;20040;-74
2021/07/27 06:02:11;;;;;;;28.33;21.77;;;18.30;99.90;;;;;;5033372;28;20112;-74
2021/07/27 06:04:36;;;;;;;35.25;23.42;;;18.30;99.90;;;;;;5034433;28;20034;-74
2021/07/27 06:07:02;;;;;;;34.55;22.33;;;18.30;99.90;;;;;;5033438;28;20048;-74
2021/07/27 06:09:28;;;;;;;31.30;22.23;;;18.40;99.90;;;;;;5034466;28;20034;-74
2021/07/27 06:11:53;;;;;;;40.58;25.42;;;18.40;99.90;;;;;;5033855;28;20056;-74
2021/07/27 06:14:19;;;;;;;32.42;23.50;;;18.50;99.90;;;;;;5033372;28;20060;-75
2021/07/27 06:16:44;;;;;;;32.47;21.67;;;18.50;99.90;;;;;;5033354;28;20025;-75
2021/07/27 06:19:10;;;;;;;32.97;22.40;;;18.60;99.90;;;;;;5033925;28;20040;-75
2021/07/27 06:21:38;;;;;;;32.63;22.67;;;18.60;99.90;;;;;;5031383;28;20034;-74
2021/07/27 06:24:08;;;;;;;35.58;24.83;;;18.60;99.90;;;;;;5020764;28;20052;-77
2021/07/27 06:26:35;;;;;;;31.02;21.38;;;18.60;99.90;;;;;;5018435;28;20030;-75
2021/07/27 06:29:02;;;;;;;28.15;22.15;;;18.70;99.90;;;;;;5031085;28;20512;-74
2021/07/27 06:31:28;;;;;;;33.45;22.42;;;18.70;99.90;;;;;;5032048;28;20277;-75
2021/07/27 06:33:53;;;;;;;33.75;23.42;;;18.70;99.90;;;;;;5032884;28;20462;-74
2021/07/27 06:36:19;;;;;;;35.45;22.35;;;18.80;99.90;;;;;;5032948;28;20033;-74
2021/07/27 06:38:45;;;;;;;29.55;21.55;;;18.90;99.90;;;;;;5031876;28;20539;-75
2021/07/27 06:41:11;;;;;;;32.25;23.35;;;19.00;99.90;;;;;;5033179;28;20032;-73
2021/07/27 06:43:38;;;;;;;30.80;23.15;;;19.10;99.90;;;;;;5030944;28;20036;-75
2021/07/27 06:46:04;;;;;;;30.85;22.20;;;19.10;99.90;;;;;;5028096;28;20035;-74
2021/07/27 06:48:30;;;;;;;36.40;22.50;;;19.00;99.90;;;;;;5024187;28;20042;-75
2021/07/27 06:50:55;;;;;;;38.35;21.77;;;19.00;99.90;;;;;;5014713;28;20034;-74
2021/07/27 06:53:23;;;;;;;33.65;22.60;;;19.00;99.90;;;;;;5013705;28;20030;-74
2021/07/27 06:55:49;;;;;;;31.88;22.02;;;19.00;99.90;;;;;;5017234;28;20030;-74
2021/07/27 06:58:15;;;;;;;34.42;22.25;;;19.00;99.90;;;;;;5011834;28;21470;-74
2021/07/27 07:00:40;;;;;;;33.58;22.70;;;19.10;99.90;;;;;;5018530;28;20040;-75
2021/07/27 07:03:12;;;;;;;31.25;21.83;;;19.20;99.90;;;;;;5015373;28;20068;-76
2021/07/27 07:05:38;;;;;;;29.38;20.73;;;19.20;99.90;;;;;;5021029;28;20149;-74
2021/07/27 07:08:04;;;;;;;27.45;20.48;;;19.30;99.90;;;;;;5017924;28;20445;-74
2021/07/27 07:10:30;;;;;;;32.83;19.60;;;19.40;99.90;;;;;;5016057;28;20091;-76
2021/07/27 07:12:55;;;;;;;31.92;21.25;;;19.50;99.90;;;;;;5018288;28;20370;-75
2021/07/27 07:15:21;;;;;;;25.85;20.27;;;19.60;99.90;;;;;;5017420;28;20033;-76
2021/07/27 07:17:47;;;;;;;31.30;21.48;;;19.70;99.90;;;;;;5028523;28;20100;-74
2021/07/27 07:20:13;;;;;;;29.33;20.73;;;19.80;99.90;;;;;;5030722;28;20037;-76
2021/07/27 07:22:38;;;;;;;26.63;19.98;;;19.80;99.90;;;;;;5031999;28;20032;-76
2021/07/27 07:25:05;;;;;;;28.73;19.77;;;19.90;99.90;;;;;;5030907;28;20032;-76
2021/07/27 07:27:30;;;;;;;29.27;19.52;;;19.90;99.90;;;;;;5033693;28;20104;-76
2021/07/27 07:29:59;;;;;;;30.08;19.63;;;20.00;99.90;;;;;;5022145;28;20051;-76
2021/07/27 07:32:25;;;;;;;26.10;19.17;;;20.00;99.90;;;;;;5031640;28;20029;-76
2021/07/27 07:34:54;;;;;;;35.28;22.85;;;20.00;99.90;;;;;;5031537;28;20044;-76
2021/07/27 07:37:19;;;;;;;30.48;22.23;;;20.00;99.90;;;;;;5032077;28;20553;-76
2021/07/27 07:39:45;;;;;;;26.88;20.45;;;20.10;99.90;;;;;;5029431;28;20109;-77
2021/07/27 07:42:16;;;;;;;31.45;22.52;;;20.20;99.90;;;;;;5023115;28;20025;-75
2021/07/27 07:44:41;;;;;;;33.72;21.63;;;20.30;99.90;;;;;;5031540;28;20076;-76
2021/07/27 07:47:07;;;;;;;34.92;20.98;;;20.50;99.90;;;;;;5015085;28;20062;-74
2021/07/27 07:49:32;;;;;;;26.83;20.35;;;20.60;99.90;;;;;;5024224;28;20487;-76
2021/07/27 07:51:58;;;;;;;28.95;22.08;;;20.80;99.90;;;;;;5032844;28;20021;-74
2021/07/27 07:54:25;;;;;;;31.30;20.92;;;20.80;99.90;;;;;;5033280;28;20497;-76
2021/07/27 07:56:51;;;;;;;30.27;21.80;;;20.80;99.90;;;;;;5031346;28;20025;-75
2021/07/27 07:59:18;;;;;;;34.97;22.02;;;20.80;99.90;;;;;;5016959;28;20714;-77
2021/07/27 08:01:48;;;;;;;29.10;22.13;;;20.70;99.90;;;;;;5025749;28;20477;-76
2021/07/27 08:04:15;;;;;;;39.80;21.98;;;20.60;99.90;;;;;;5022454;28;20101;-75
2021/07/27 08:06:40;;;;;;;29.02;21.42;;;20.50;99.90;;;;;;5030986;28;20049;-77
2021/07/27 08:09:06;;;;;;;32.90;22.60;;;20.50;99.90;;;;;;5022031;28;20460;-75
2021/07/27 08:11:32;;;;;;;38.90;24.30;;;20.50;99.90;;;;;;5033382;28;20413;-76
2021/07/27 08:13:58;;;;;;;31.27;24.08;;;20.50;99.90;;;;;;5032665;28;20029;-76
2021/07/27 08:16:27;;;;;;;29.73;22.45;;;20.70;99.90;;;;;;5037129;28;20112;-75
2021/07/27 08:18:53;;;;;;;34.90;24.90;;;20.40;99.90;;;;;;5038956;28;20009;-75
2021/07/27 08:21:24;;;;;;;33.28;23.85;;;20.40;99.90;;;;;;5035537;28;20181;-78
2021/07/27 08:23:50;;;;;;;36.95;24.00;;;20.40;99.90;;;;;;5030306;28;20036;-77
2021/07/27 08:26:15;;;;;;;29.95;23.23;;;20.40;99.90;;;;;;5031374;28;20057;-77
2021/07/27 08:28:46;;;;;;;33.47;26.88;;;20.50;99.90;;;;;;5033018;28;20358;-78
2021/07/27 08:31:15;;;;;;;38.75;26.25;;;20.50;99.90;;;;;;5033565;28;20020;-78
2021/07/27 08:33:41;;;;;;;33.03;26.23;;;20.50;99.90;;;;;;5033299;28;20068;-79
2021/07/27 08:36:07;;;;;;;40.42;27.48;;;20.50;99.90;;;;;;5032922;28;20048;-79
2021/07/27 08:38:35;;;;;;;35.72;26.83;;;20.40;99.90;;;;;;5033439;28;20033;-79
2021/07/27 08:41:02;;;;;;;30.52;24.98;;;20.40;99.90;;;;;;5037228;28;20469;-78
2021/07/27 08:43:28;;;;;;;29.88;23.90;;;20.40;99.90;;;;;;5038178;28;20037;-79
2021/07/27 08:45:54;;;;;;;32.50;22.52;;;20.20;99.90;;;;;;5038555;28;20113;-80
2021/07/27 08:48:24;;;;;;;33.70;24.80;;;20.20;99.90;;;;;;5038539;28;20603;-80
2021/07/27 08:50:50;;;;;;;30.63;23.60;;;20.20;99.90;;;;;;5038514;28;20025;-79
2021/07/27 08:53:16;;;;;;;31.35;22.35;;;20.10;99.90;;;;;;5039308;28;20018;-78
2021/07/27 08:55:42;;;;;;;35.50;25.27;;;20.10;99.90;;;;;;5038206;28;20116;-78
2021/07/27 08:58:08;;;;;;;31.73;24.58;;;20.00;99.90;;;;;;5038946;28;20104;-78
2021/07/27 09:00:34;;;;;;;31.70;24.30;;;20.00;99.90;;;;;;5037598;28;20037;-79
2021/07/27 09:03:14;;;;;;;29.00;22.25;;;20.00;99.90;;;;;;5037138;28;20025;-80
2021/07/27 09:05:40;;;;;;;26.80;22.35;;;20.00;99.90;;;;;;5038027;28;20026;-79
2021/07/27 09:08:08;;;;;;;25.48;20.73;;;20.00;99.90;;;;;;5038668;28;20035;-79
2021/07/27 09:10:35;;;;;;;25.52;19.58;;;19.90;99.90;;;;;;5038819;28;20021;-80
2021/07/27 09:13:04;;;;;;;22.65;19.40;;;19.90;99.90;;;;;;5039181;28;20029;-80
2021/07/27 09:15:32;;;;;;;25.42;17.70;;;19.90;99.90;;;;;;5037674;28;20064;-79
2021/07/27 09:17:59;;;;;;;20.08;17.52;;;20.00;99.90;;;;;;5036688;28;20033;-79
2021/07/27 09:20:28;;;;;;;20.52;17.08;;;20.10;99.90;;;;;;5037285;28;20033;-80
2021/07/27 09:22:54;;;;;;;17.85;16.05;;;20.00;99.90;;;;;;5038694;28;20041;-79
2021/07/27 09:25:26;;;;;;;18.27;15.35;;;20.00;99.90;;;;;;5037088;28;20460;-81
2021/07/27 09:28:08;;;;;;;19.23;16.02;;;19.90;99.90;;;;;;5037653;28;20025;-79
2021/07/27 09:30:44;;;;;;;20.25;15.95;;;19.90;99.90;;;;;;5023824;28;20030;-79
2021/07/27 09:33:12;;;;;;;18.80;16.50;;;19.80;99.90;;;;;;5036993;28;20025;-79
2021/07/27 09:35:39;;;;;;;20.35;16.52;;;19.80;99.90;;;;;;5038446;28;20034;-79
2021/07/27 09:38:18;;;;;;;17.30;15.27;;;19.70;99.90;;;;;;5037630;28;20042;-78
2021/07/27 09:40:48;;;;;;;22.95;16.27;;;19.70;99.90;;;;;;5023750;28;20029;-80
2021/07/27 09:43:16;;;;;;;19.73;15.73;;;19.70;99.90;;;;;;5037556;28;20026;-78
2021/07/27 09:45:47;;;;;;;18.30;15.68;;;19.70;99.90;;;;;;5037208;28;20503;-78
2021/07/27 09:48:17;;;;;;;21.02;15.40;;;19.70;99.90;;;;;;5037727;28;20029;-79
2021/07/27 09:50:50;;;;;;;20.67;15.70;;;19.80;99.90;;;;;;5037190;28;20021;-80
2021/07/27 09:53:16;;;;;;;21.13;15.60;;;19.80;99.90;;;;;;5038012;28;20022;-79
2021/07/27 09:55:42;;;;;;;18.02;15.60;;;19.70;99.90;;;;;;5038749;28;20470;-79
2021/07/27 09:58:08;;;;;;;20.55;15.98;;;19.60;99.90;;;;;;5034529;28;20064;-79
2021/07/27 10:00:51;;;;;;;26.20;16.05;;;19.50;99.90;;;;;;5028250;28;20038;-79
2021/07/27 10:03:23;;;;;;;16.67;14.88;;;19.40;99.90;;;;;;5038045;28;20028;-78
2021/07/27 10:05:57;;;;;;;20.20;15.00;;;19.30;99.90;;;;;;5037565;28;20115;-77
2021/07/27 10:08:34;;;;;;;18.30;16.08;;;19.30;99.90;;;;;;5036896;28;20014;-78
2021/07/27 10:11:18;;;;;;;17.73;15.30;;;19.20;99.90;;;;;;5037611;28;20018;-77
2021/07/27 10:13:48;;;;;;;19.08;14.45;;;19.10;99.90;;;;;;5025336;28;20026;-78
2021/07/27 10:16:26;;;;;;;;;;;19.00;99.90;;;;;;5032960;28;20029;-78
2021/07/27 10:18:52;;;;;;;17.90;12.75;;;19.00;99.90;;;;;;5036676;28;19912;-77
2021/07/27 10:21:26;;;;;;;17.00;12.82;;;19.00;99.90;;;;;;5035879;28;20029;-77
2021/07/27 10:24:24;;;;;;;16.45;11.35;;;19.00;99.90;;;;;;5034652;28;20046;-78
2021/07/27 10:26:49;;;;;;;21.02;12.55;;;18.90;99.90;;;;;;5031735;28;20035;-80
2021/07/27 10:29:30;;;;;;;16.25;11.27;;;18.90;99.90;;;;;;5033645;28;20096;-70
2021/07/27 10:31:55;;;;;;;16.42;11.35;;;18.80;99.90;;;;;;5034376;28;20481;-80
2021/07/27 10:34:32;;;;;;;16.50;12.38;;;18.90;99.90;;;;;;5025845;28;20037;-79
2021/07/27 10:37:06;;;;;;;12.68;10.25;;;18.80;99.90;;;;;;5035689;28;20026;-80
2021/07/27 10:39:32;;;;;;;10.82;8.38;;;18.70;99.90;;;;;;5033369;28;20033;-77
2021/07/27 10:42:06;;;;;;;14.65;7.97;;;18.60;99.90;;;;;;5033861;28;20033;-78
2021/07/27 10:44:38;;;;;;;12.27;7.57;;;18.50;99.90;;;;;;5035154;28;20013;-79
2021/07/27 10:47:04;;;;;;;8.90;7.63;;;18.50;99.90;;;;;;5034627;28;20112;-79
2021/07/27 10:49:29;;;;;;;8.65;7.85;;;18.50;99.90;;;;;;5035413;28;20438;-78
2021/07/27 10:52:01;;;;;;;9.85;7.82;;;18.70;99.90;;;;;;5035061;28;20091;-78
2021/07/27 10:54:31;;;;;;;15.25;7.80;;;18.60;99.90;;;;;;5033973;28;20030;-78
2021/07/27 10:57:06;;;;;;;9.80;8.38;;;18.70;99.90;;;;;;5033690;28;20040;-78
2021/07/27 10:59:36;;;;;;;12.50;7.25;;;18.90;99.90;;;;;;5032948;28;20088;-79
2021/07/27 11:02:10;;;;;;;9.10;7.60;;;19.10;99.90;;;;;;5033408;28;20095;-79
2021/07/27 11:04:36;;;;;;;10.02;7.25;;;19.20;99.90;;;;;;5032412;28;20029;-79
2021/07/27 11:07:12;;;;;;;7.07;6.38;;;19.40;99.90;;;;;;5033752;28;20112;-79
2021/07/27 11:09:48;;;;;;;6.55;5.85;;;19.50;99.90;;;;;;5030721;28;20544;-79
2021/07/27 11:12:23;;;;;;;9.90;6.47;;;19.70;99.90;;;;;;5034695;28;20036;-79
2021/07/27 11:14:49;;;;;;;9.88;6.45;;;20.00;99.90;;;;;;5034501;28;20021;-78
2021/07/27 11:17:23;;;;;;;10.43;6.80;;;20.10;99.90;;;;;;5033421;28;20030;-79
2021/07/27 11:19:49;;;;;;;8.55;6.35;;;20.30;99.90;;;;;;5033683;28;20029;-80
2021/07/27 11:22:15;;;;;;;9.43;6.03;;;20.50;99.90;;;;;;5033978;28;20021;-78
2021/07/27 11:24:41;;;;;;;8.13;5.60;;;20.70;99.90;;;;;;5031946;28;20085;-80
2021/07/27 11:27:12;;;;;;;7.65;6.15;;;21.00;99.90;;;;;;5032947;28;20481;-79
2021/07/27 11:29:38;;;;;;;9.35;5.40;;;21.30;99.90;;;;;;5036272;28;20422;-77
2021/07/27 11:32:12;;;;;;;7.35;5.40;;;21.60;99.90;;;;;;5038831;28;20118;-79
2021/07/27 11:34:44;;;;;;;7.47;5.13;;;22.00;99.90;;;;;;5034346;28;20088;-78
2021/07/27 11:37:10;;;;;;;7.20;5.28;;;22.20;99.90;;;;;;5035254;28;20429;-79
2021/07/27 11:39:39;;;;;;;6.28;4.75;;;22.30;99.90;;;;;;5038454;28;20029;-78
2021/07/27 11:42:06;;;;;;;5.63;4.55;;;22.30;99.90;;;;;;5037402;28;20049;-78
2021/07/27 11:47:10;;;;;;;4.57;4.18;;;22.50;99.90;;;;;;5190944;23;20521;-77
2021/07/27 11:49:35;;;;;;;12.20;5.78;;;22.40;99.90;;;;;;5018304;28;20037;-77
2021/07/27 11:52:07;;;;;;;6.57;5.50;;;22.50;99.90;;;;;;5010310;28;20042;-77
2021/07/27 11:54:33;;;;;;;5.55;4.70;;;22.60;99.90;;;;;;5002765;28;20537;-78
2021/07/27 11:57:00;;;;;;;5.43;4.93;;;22.70;99.90;;;;;;5007797;28;20030;-78
2021/07/27 11:59:29;;;;;;;6.43;5.47;;;22.70;99.90;;;;;;5002943;28;20427;-78
2021/07/27 12:01:56;;;;;;;5.30;4.80;;;22.60;99.90;;;;;;5009744;28;20061;-78
2021/07/27 12:04:22;;;;;;;5.63;4.70;;;22.50;99.90;;;;;;5004360;28;20022;-79
2021/07/27 12:06:50;;;;;;;5.85;4.57;;;22.40;99.90;;;;;;4999446;28;20444;-77
2021/07/27 12:09:17;;;;;;;8.70;4.53;;;22.40;99.90;;;;;;4995640;28;20066;-78
2021/07/27 12:11:43;;;;;;;6.03;3.47;;;22.30;99.90;;;;;;5007448;28;20032;-78
2021/07/27 12:14:09;;;;;;;6.47;3.65;;;22.20;99.90;;;;;;5002487;28;20112;-77
2021/07/27 12:16:35;;;;;;;5.95;3.58;;;22.30;99.90;;;;;;5006936;28;20018;-76
2021/07/27 12:19:01;;;;;;;5.63;4.00;;;22.50;99.90;;;;;;5009398;28;20037;-77
2021/07/27 12:21:26;;;;;;;7.57;3.90;;;22.70;99.90;;;;;;5010379;28;20042;-78
2021/07/27 12:23:52;;;;;;;6.20;4.25;;;22.90;99.90;;;;;;5001394;28;20486;-78
2021/07/27 12:26:17;;;;;;;7.65;3.95;;;22.90;99.90;;;;;;5012654;28;20500;-77
2021/07/27 12:28:43;;;;;;;4.88;3.40;;;23.00;99.90;;;;;;5015241;28;20028;-77
2021/07/27 12:31:08;;;;;;;3.80;3.17;;;23.10;99.90;;;;;;5015368;28;20106;-77
2021/07/27 12:33:34;;;;;;;5.47;4.18;;;23.20;99.90;;;;;;5014836;28;20032;-77
2021/07/27 12:36:03;;;;;;;4.05;3.47;;;23.40;99.90;;;;;;5014281;28;20101;-79
2021/07/27 12:38:28;;;;;;;6.05;3.88;;;23.40;99.90;;;;;;5006074;28;20022;-77
2021/07/27 12:40:54;;;;;;;5.57;4.03;;;23.40;99.90;;;;;;5013468;28;20045;-77
2021/07/27 12:43:20;;;;;;;4.45;3.22;;;23.30;99.90;;;;;;5013478;28;20496;-76
2021/07/27 12:45:45;;;;;;;6.90;3.90;;;23.30;99.90;;;;;;5012491;28;20565;-76
2021/07/27 12:48:14;;;;;;;9.65;4.30;;;23.30;99.90;;;;;;5011938;28;20018;-76
2021/07/27 12:50:40;;;;;;;9.43;3.47;;;23.20;99.90;;;;;;5013305;28;20435;-77